sensor_id;sensor_type;location;lat;lon;timestamp;P1;durP1;ratioP1;P2;durP2;ratioP2
45382;SDS011;42455;51.660;5.824;2023-05-29T00:02:55;11.0;;;4.0;;
45382;SDS011;42455;51.660;5.824;2023-05-29T00:08:01;11.0;;;4.0;;
45382;SDS011;42455;51.660;5.824;2023-05-29T00:13:07;9.0;;;4.0;;
45382;SDS011;42455;51.660;5.824;2023-05-29T00:18:13;9.0;;;3.0;;
45382;SDS011;42455;51.660;5.824;2023-05-29T00:23:20;10.0;;;4.0;;
45382;SDS011;42455;51.660;5.824;2023-05-29T00:28:26;9.0;;;3.0;;
45382;SDS011;42455;51.660;5.824;2023-05-29T00:33:32;9.0;;;3.0;;
45382;SDS011;42455;51.660;5.824;2023-05-29T00:38:38;9.0;;;3.0;;
45382;SDS011;42455;51.660;5.824;2023-05-29T00:43:45;9.0;;;3.0;;
45382;SDS011;42455;51.660;5.824;2023-05-29T00:48:51;10.0;;;3.5;;
45382;SDS011;42455;51.660;5.824;2023-05-29T00:53:57;11.0;;;3.5;;
45382;SDS011;42455;51.660;5.824;2023-05-29T00:59:03;9.5;;;3.0;;
45382;SDS011;42455;51.660;5.824;2023-05-29T01:04:09;10.0;;;3.0;;
45382;SDS011;42455;51.660;5.824;2023-05-29T01:09:16;10.0;;;3.0;;
45382;SDS011;42455;51.660;5.824;2023-05-29T01:14:45;9.0;;;3.0;;
45382;SDS011;42455;51.660;5.824;2023-05-29T01:20:09;9.0;;;3.0;;
45382;SDS011;42455;51.660;5.824;2023-05-29T01:25:11;12.0;;;3.0;;
45382;SDS011;42455;51.660;5.824;2023-05-29T01:29:42;10.0;;;3.0;;
45382;SDS011;42455;51.660;5.824;2023-05-29T01:34:47;10.0;;;3.0;;
45382;SDS011;42455;51.660;5.824;2023-05-29T01:39:53;12.0;;;3.0;;
45382;SDS011;42455;51.660;5.824;2023-05-29T01:44:59;8.0;;;3.0;;
45382;SDS011;42455;51.660;5.824;2023-05-29T01:50:05;11.0;;;3.0;;
45382;SDS011;42455;51.660;5.824;2023-05-29T01:55:11;10.0;;;3.0;;
45382;SDS011;42455;51.660;5.824;2023-05-29T02:00:18;11.0;;;3.0;;
45382;SDS011;42455;51.660;5.824;2023-05-29T02:05:24;9.0;;;3.0;;
45382;SDS011;42455;51.660;5.824;2023-05-29T02:10:30;9.5;;;3.0;;
45382;SDS011;42455;51.660;5.824;2023-05-29T02:15:36;12.0;;;4.0;;
45382;SDS011;42455;51.660;5.824;2023-05-29T02:20:42;10.0;;;3.0;;
45382;SDS011;42455;51.660;5.824;2023-05-29T02:25:48;11.0;;;3.0;;
45382;SDS011;42455;51.660;5.824;2023-05-29T02:30:54;13.0;;;3.5;;
45382;SDS011;42455;51.660;5.824;2023-05-29T02:36:00;11.0;;;3.0;;
45382;SDS011;42455;51.660;5.824;2023-05-29T02:41:06;9.0;;;3.0;;
45382;SDS011;42455;51.660;5.824;2023-05-29T02:46:13;10.0;;;3.0;;
45382;SDS011;42455;51.660;5.824;2023-05-29T02:51:19;11.0;;;3.0;;
45382;SDS011;42455;51.660;5.824;2023-05-29T02:56:25;11.0;;;3.0;;
45382;SDS011;42455;51.660;5.824;2023-05-29T03:01:31;11.0;;;3.0;;
45382;SDS011;42455;51.660;5.824;2023-05-29T03:06:37;12.0;;;4.0;;
45382;SDS011;42455;51.660;5.824;2023-05-29T03:11:44;10.0;;;3.0;;
45382;SDS011;42455;51.660;5.824;2023-05-29T03:16:50;12.0;;;3.0;;
45382;SDS011;42455;51.660;5.824;2023-05-29T03:21:56;13.0;;;3.0;;
45382;SDS011;42455;51.660;5.824;2023-05-29T03:27:02;11.0;;;3.0;;
45382;SDS011;42455;51.660;5.824;2023-05-29T03:32:08;10.0;;;3.0;;
45382;SDS011;42455;51.660;5.824;2023-05-29T03:37:15;13.0;;;3.0;;
45382;SDS011;42455;51.660;5.824;2023-05-29T03:42:21;11.0;;;3.0;;
45382;SDS011;42455;51.660;5.824;2023-05-29T03:47:27;10.0;;;3.0;;
45382;SDS011;42455;51.660;5.824;2023-05-29T03:52:33;11.0;;;3.0;;
45382;SDS011;42455;51.660;5.824;2023-05-29T03:57:40;12.0;;;3.0;;
45382;SDS011;42455;51.660;5.824;2023-05-29T04:02:46;12.0;;;3.0;;
45382;SDS011;42455;51.660;5.824;2023-05-29T04:07:52;12.5;;;3.0;;
45382;SDS011;42455;51.660;5.824;2023-05-29T04:12:58;10.0;;;3.0;;
45382;SDS011;42455;51.660;5.824;2023-05-29T04:18:04;12.0;;;3.0;;
45382;SDS011;42455;51.660;5.824;2023-05-29T04:23:10;10.0;;;3.0;;
45382;SDS011;42455;51.660;5.824;2023-05-29T04:28:17;11.0;;;3.0;;
45382;SDS011;42455;51.660;5.824;2023-05-29T04:33:23;11.0;;;3.0;;
45382;SDS011;42455;51.660;5.824;2023-05-29T04:38:29;11.5;;;3.0;;
45382;SDS011;42455;51.660;5.824;2023-05-29T04:43:35;10.0;;;3.0;;
45382;SDS011;42455;51.660;5.824;2023-05-29T04:48:42;13.0;;;3.0;;
45382;SDS011;42455;51.660;5.824;2023-05-29T04:53:48;12.0;;;3.0;;
45382;SDS011;42455;51.660;5.824;2023-05-29T04:58:54;13.5;;;4.0;;
45382;SDS011;42455;51.660;5.824;2023-05-29T05:04:00;14.0;;;3.0;;
45382;SDS011;42455;51.660;5.824;2023-05-29T05:09:06;13.0;;;3.5;;
45382;SDS011;42455;51.660;5.824;2023-05-29T05:14:13;15.0;;;4.0;;
45382;SDS011;42455;51.660;5.824;2023-05-29T05:19:19;12.0;;;4.0;;
45382;SDS011;42455;51.660;5.824;2023-05-29T05:24:25;14.0;;;3.0;;
45382;SDS011;42455;51.660;5.824;2023-05-29T05:29:31;13.0;;;3.0;;
45382;SDS011;42455;51.660;5.824;2023-05-29T05:34:38;11.0;;;3.0;;
45382;SDS011;42455;51.660;5.824;2023-05-29T05:39:44;12.0;;;3.0;;
45382;SDS011;42455;51.660;5.824;2023-05-29T05:44:50;14.0;;;3.0;;
45382;SDS011;42455;51.660;5.824;2023-05-29T05:49:56;12.0;;;3.0;;
45382;SDS011;42455;51.660;5.824;2023-05-29T05:55:03;13.0;;;4.0;;
45382;SDS011;42455;51.660;5.824;2023-05-29T06:00:08;11.0;;;3.0;;
45382;SDS011;42455;51.660;5.824;2023-05-29T06:05:15;13.0;;;4.0;;
45382;SDS011;42455;51.660;5.824;2023-05-29T06:10:21;11.0;;;3.0;;
45382;SDS011;42455;51.660;5.824;2023-05-29T06:15:27;12.0;;;3.0;;
45382;SDS011;42455;51.660;5.824;2023-05-29T06:20:33;9.0;;;3.0;;
45382;SDS011;42455;51.660;5.824;2023-05-29T06:30:46;12.0;;;3.0;;
45382;SDS011;42455;51.660;5.824;2023-05-29T06:35:52;12.5;;;3.0;;
45382;SDS011;42455;51.660;5.824;2023-05-29T06:40:58;12.0;;;3.0;;
45382;SDS011;42455;51.660;5.824;2023-05-29T06:46:04;8.0;;;3.0;;
45382;SDS011;42455;51.660;5.824;2023-05-29T06:51:11;13.0;;;3.0;;
45382;SDS011;42455;51.660;5.824;2023-05-29T06:56:17;10.0;;;3.0;;
45382;SDS011;42455;51.660;5.824;2023-05-29T07:01:23;10.0;;;3.0;;
45382;SDS011;42455;51.660;5.824;2023-05-29T07:06:29;11.0;;;3.0;;
45382;SDS011;42455;51.660;5.824;2023-05-29T07:11:36;10.5;;;3.0;;
45382;SDS011;42455;51.660;5.824;2023-05-29T07:16:42;11.5;;;3.0;;
45382;SDS011;42455;51.660;5.824;2023-05-29T07:21:48;10.0;;;3.0;;
45382;SDS011;42455;51.660;5.824;2023-05-29T07:26:54;11.0;;;3.0;;
45382;SDS011;42455;51.660;5.824;2023-05-29T07:32:00;11.0;;;3.0;;
45382;SDS011;42455;51.660;5.824;2023-05-29T07:37:06;9.0;;;3.0;;
45382;SDS011;42455;51.660;5.824;2023-05-29T07:42:13;9.0;;;3.0;;
45382;SDS011;42455;51.660;5.824;2023-05-29T07:47:19;10.0;;;3.0;;
45382;SDS011;42455;51.660;5.824;2023-05-29T07:52:24;11.0;;;3.0;;
45382;SDS011;42455;51.660;5.824;2023-05-29T07:57:30;10.0;;;3.0;;
45382;SDS011;42455;51.660;5.824;2023-05-29T08:02:37;7.0;;;2.0;;
45382;SDS011;42455;51.660;5.824;2023-05-29T08:07:43;11.5;;;3.0;;
45382;SDS011;42455;51.660;5.824;2023-05-29T08:12:49;8.0;;;3.0;;
45382;SDS011;42455;51.660;5.824;2023-05-29T08:17:55;11.0;;;3.0;;
45382;SDS011;42455;51.660;5.824;2023-05-29T08:23:00;8.5;;;3.0;;
45382;SDS011;42455;51.660;5.824;2023-05-29T08:28:07;7.0;;;3.0;;
45382;SDS011;42455;51.660;5.824;2023-05-29T08:33:13;8.0;;;3.0;;
45382;SDS011;42455;51.660;5.824;2023-05-29T08:38:19;7.5;;;2.0;;
45382;SDS011;42455;51.660;5.824;2023-05-29T08:43:26;9.0;;;3.0;;
45382;SDS011;42455;51.660;5.824;2023-05-29T08:48:31;7.0;;;2.0;;
45382;SDS011;42455;51.660;5.824;2023-05-29T08:58:44;9.0;;;2.0;;
45382;SDS011;42455;51.660;5.824;2023-05-29T09:03:50;7.0;;;2.0;;
45382;SDS011;42455;51.660;5.824;2023-05-29T09:08:56;7.0;;;2.0;;
45382;SDS011;42455;51.660;5.824;2023-05-29T09:14:02;10.0;;;2.0;;
45382;SDS011;42455;51.660;5.824;2023-05-29T09:19:09;9.0;;;2.0;;
45382;SDS011;42455;51.660;5.824;2023-05-29T09:24:15;12.0;;;3.0;;
45382;SDS011;42455;51.660;5.824;2023-05-29T09:29:21;7.0;;;2.0;;
45382;SDS011;42455;51.660;5.824;2023-05-29T09:34:28;8.0;;;2.0;;
45382;SDS011;42455;51.660;5.824;2023-05-29T09:39:34;8.0;;;2.0;;
45382;SDS011;42455;51.660;5.824;2023-05-29T09:44:40;8.0;;;2.0;;
45382;SDS011;42455;51.660;5.824;2023-05-29T09:49:46;7.0;;;2.0;;
45382;SDS011;42455;51.660;5.824;2023-05-29T09:54:52;6.0;;;2.0;;
45382;SDS011;42455;51.660;5.824;2023-05-29T09:59:58;6.0;;;2.0;;
45382;SDS011;42455;51.660;5.824;2023-05-29T10:05:05;7.0;;;3.0;;
45382;SDS011;42455;51.660;5.824;2023-05-29T10:10:11;6.0;;;2.0;;
45382;SDS011;42455;51.660;5.824;2023-05-29T10:15:17;7.0;;;2.0;;
45382;SDS011;42455;51.660;5.824;2023-05-29T10:20:24;14.0;;;3.0;;
45382;SDS011;42455;51.660;5.824;2023-05-29T10:25:30;7.0;;;2.0;;
45382;SDS011;42455;51.660;5.824;2023-05-29T10:30:41;6.0;;;2.0;;
45382;SDS011;42455;51.660;5.824;2023-05-29T10:35:47;7.0;;;2.0;;
45382;SDS011;42455;51.660;5.824;2023-05-29T10:40:48;5.0;;;2.0;;
45382;SDS011;42455;51.660;5.824;2023-05-29T10:45:54;7.0;;;2.0;;
45382;SDS011;42455;51.660;5.824;2023-05-29T10:51:01;6.0;;;2.0;;
45382;SDS011;42455;51.660;5.824;2023-05-29T10:56:07;6.0;;;2.0;;
45382;SDS011;42455;51.660;5.824;2023-05-29T11:01:13;7.0;;;2.0;;
45382;SDS011;42455;51.660;5.824;2023-05-29T11:06:21;6.0;;;2.0;;
45382;SDS011;42455;51.660;5.824;2023-05-29T11:11:29;7.0;;;2.0;;
45382;SDS011;42455;51.660;5.824;2023-05-29T11:16:37;6.0;;;2.0;;
45382;SDS011;42455;51.660;5.824;2023-05-29T11:21:44;5.0;;;2.0;;
45382;SDS011;42455;51.660;5.824;2023-05-29T11:26:44;7.0;;;2.0;;
45382;SDS011;42455;51.660;5.824;2023-05-29T11:31:54;7.0;;;2.0;;
45382;SDS011;42455;51.660;5.824;2023-05-29T11:36:57;6.0;;;2.0;;
45382;SDS011;42455;51.660;5.824;2023-05-29T11:42:03;5.0;;;2.0;;
45382;SDS011;42455;51.660;5.824;2023-05-29T11:47:09;6.0;;;2.0;;
45382;SDS011;42455;51.660;5.824;2023-05-29T11:52:15;6.0;;;2.0;;
45382;SDS011;42455;51.660;5.824;2023-05-29T11:57:21;7.0;;;2.0;;
45382;SDS011;42455;51.660;5.824;2023-05-29T12:02:29;6.0;;;2.0;;
45382;SDS011;42455;51.660;5.824;2023-05-29T12:07:34;5.5;;;2.0;;
45382;SDS011;42455;51.660;5.824;2023-05-29T12:12:40;5.0;;;2.0;;
45382;SDS011;42455;51.660;5.824;2023-05-29T12:17:46;5.0;;;2.0;;
45382;SDS011;42455;51.660;5.824;2023-05-29T12:22:52;6.0;;;2.0;;
45382;SDS011;42455;51.660;5.824;2023-05-29T12:27:58;4.0;;;2.0;;
45382;SDS011;42455;51.660;5.824;2023-05-29T12:33:05;6.0;;;2.0;;
45382;SDS011;42455;51.660;5.824;2023-05-29T12:38:11;5.0;;;2.0;;
45382;SDS011;42455;51.660;5.824;2023-05-29T12:43:17;6.0;;;2.0;;
45382;SDS011;42455;51.660;5.824;2023-05-29T12:48:26;6.0;;;2.0;;
45382;SDS011;42455;51.660;5.824;2023-05-29T12:53:29;6.0;;;3.0;;
45382;SDS011;42455;51.660;5.824;2023-05-29T12:58:36;6.0;;;2.0;;
45382;SDS011;42455;51.660;5.824;2023-05-29T13:03:42;5.0;;;2.0;;
45382;SDS011;42455;51.660;5.824;2023-05-29T13:08:48;7.0;;;3.0;;
45382;SDS011;42455;51.660;5.824;2023-05-29T13:13:54;6.0;;;2.0;;
45382;SDS011;42455;51.660;5.824;2023-05-29T13:19:01;7.0;;;2.0;;
45382;SDS011;42455;51.660;5.824;2023-05-29T13:24:07;6.0;;;2.0;;
45382;SDS011;42455;51.660;5.824;2023-05-29T13:29:13;7.0;;;3.0;;
45382;SDS011;42455;51.660;5.824;2023-05-29T13:34:19;6.0;;;2.0;;
45382;SDS011;42455;51.660;5.824;2023-05-29T13:39:25;5.0;;;2.0;;
45382;SDS011;42455;51.660;5.824;2023-05-29T13:44:32;5.0;;;2.0;;
45382;SDS011;42455;51.660;5.824;2023-05-29T13:49:38;7.0;;;2.0;;
45382;SDS011;42455;51.660;5.824;2023-05-29T13:54:43;6.0;;;3.0;;
45382;SDS011;42455;51.660;5.824;2023-05-29T13:59:49;6.0;;;2.0;;
45382;SDS011;42455;51.660;5.824;2023-05-29T14:04:55;7.0;;;2.0;;
45382;SDS011;42455;51.660;5.824;2023-05-29T14:10:02;5.0;;;2.0;;
45382;SDS011;42455;51.660;5.824;2023-05-29T14:15:09;6.0;;;2.0;;
45382;SDS011;42455;51.660;5.824;2023-05-29T14:20:14;6.5;;;2.0;;
45382;SDS011;42455;51.660;5.824;2023-05-29T14:25:20;8.0;;;2.0;;
45382;SDS011;42455;51.660;5.824;2023-05-29T14:30:26;5.0;;;2.0;;
45382;SDS011;42455;51.660;5.824;2023-05-29T14:35:33;5.0;;;2.0;;
45382;SDS011;42455;51.660;5.824;2023-05-29T14:40:39;6.0;;;2.0;;
45382;SDS011;42455;51.660;5.824;2023-05-29T14:45:45;7.0;;;2.0;;
45382;SDS011;42455;51.660;5.824;2023-05-29T14:50:51;6.0;;;2.0;;
45382;SDS011;42455;51.660;5.824;2023-05-29T14:55:57;6.0;;;2.0;;
45382;SDS011;42455;51.660;5.824;2023-05-29T15:01:04;8.0;;;2.5;;
45382;SDS011;42455;51.660;5.824;2023-05-29T15:06:10;8.0;;;3.0;;
45382;SDS011;42455;51.660;5.824;2023-05-29T15:11:16;7.0;;;2.0;;
45382;SDS011;42455;51.660;5.824;2023-05-29T15:16:22;7.0;;;2.0;;
45382;SDS011;42455;51.660;5.824;2023-05-29T15:21:29;8.0;;;3.0;;
45382;SDS011;42455;51.660;5.824;2023-05-29T15:26:35;7.0;;;2.0;;
45382;SDS011;42455;51.660;5.824;2023-05-29T15:31:41;6.0;;;2.0;;
45382;SDS011;42455;51.660;5.824;2023-05-29T15:36:47;8.0;;;2.5;;
45382;SDS011;42455;51.660;5.824;2023-05-29T15:41:53;6.5;;;2.0;;
45382;SDS011;42455;51.660;5.824;2023-05-29T15:47:00;5.0;;;2.0;;
45382;SDS011;42455;51.660;5.824;2023-05-29T15:52:06;6.0;;;3.0;;
45382;SDS011;42455;51.660;5.824;2023-05-29T15:57:12;6.0;;;2.0;;
45382;SDS011;42455;51.660;5.824;2023-05-29T16:02:18;7.0;;;2.0;;
45382;SDS011;42455;51.660;5.824;2023-05-29T16:07:24;6.0;;;2.0;;
45382;SDS011;42455;51.660;5.824;2023-05-29T16:12:31;6.0;;;2.0;;
45382;SDS011;42455;51.660;5.824;2023-05-29T16:17:37;5.0;;;2.0;;
45382;SDS011;42455;51.660;5.824;2023-05-29T16:22:43;6.0;;;2.0;;
45382;SDS011;42455;51.660;5.824;2023-05-29T16:27:49;5.0;;;2.0;;
45382;SDS011;42455;51.660;5.824;2023-05-29T16:32:55;6.0;;;2.0;;
45382;SDS011;42455;51.660;5.824;2023-05-29T16:38:02;6.0;;;2.0;;
45382;SDS011;42455;51.660;5.824;2023-05-29T16:43:08;5.0;;;2.0;;
45382;SDS011;42455;51.660;5.824;2023-05-29T16:48:14;6.5;;;2.0;;
45382;SDS011;42455;51.660;5.824;2023-05-29T16:53:20;5.0;;;2.0;;
45382;SDS011;42455;51.660;5.824;2023-05-29T16:58:27;7.0;;;2.0;;
45382;SDS011;42455;51.660;5.824;2023-05-29T17:03:33;6.0;;;2.0;;
45382;SDS011;42455;51.660;5.824;2023-05-29T17:08:39;5.0;;;2.0;;
45382;SDS011;42455;51.660;5.824;2023-05-29T17:13:45;5.0;;;2.0;;
45382;SDS011;42455;51.660;5.824;2023-05-29T17:18:51;7.5;;;2.0;;
45382;SDS011;42455;51.660;5.824;2023-05-29T17:23:58;7.0;;;2.0;;
45382;SDS011;42455;51.660;5.824;2023-05-29T17:29:04;6.0;;;2.0;;
45382;SDS011;42455;51.660;5.824;2023-05-29T17:34:10;8.0;;;2.0;;
45382;SDS011;42455;51.660;5.824;2023-05-29T17:39:16;5.0;;;2.0;;
45382;SDS011;42455;51.660;5.824;2023-05-29T17:44:22;5.0;;;2.0;;
45382;SDS011;42455;51.660;5.824;2023-05-29T17:49:29;4.0;;;2.0;;
45382;SDS011;42455;51.660;5.824;2023-05-29T17:54:35;7.0;;;2.0;;
45382;SDS011;42455;51.660;5.824;2023-05-29T17:59:41;5.0;;;2.0;;
45382;SDS011;42455;51.660;5.824;2023-05-29T18:04:47;4.0;;;2.0;;
45382;SDS011;42455;51.660;5.824;2023-05-29T18:15:00;6.5;;;2.0;;
45382;SDS011;42455;51.660;5.824;2023-05-29T18:20:06;6.0;;;2.0;;
45382;SDS011;42455;51.660;5.824;2023-05-29T18:25:12;4.0;;;2.0;;
45382;SDS011;42455;51.660;5.824;2023-05-29T18:30:18;5.0;;;2.0;;
45382;SDS011;42455;51.660;5.824;2023-05-29T18:35:24;4.0;;;1.0;;
45382;SDS011;42455;51.660;5.824;2023-05-29T18:40:31;5.0;;;2.0;;
45382;SDS011;42455;51.660;5.824;2023-05-29T18:45:37;4.0;;;2.0;;
45382;SDS011;42455;51.660;5.824;2023-05-29T18:50:43;5.0;;;2.0;;
45382;SDS011;42455;51.660;5.824;2023-05-29T18:55:49;4.0;;;2.0;;
45382;SDS011;42455;51.660;5.824;2023-05-29T19:00:56;5.0;;;2.0;;
45382;SDS011;42455;51.660;5.824;2023-05-29T19:06:02;5.5;;;2.0;;
45382;SDS011;42455;51.660;5.824;2023-05-29T19:11:08;7.0;;;2.0;;
45382;SDS011;42455;51.660;5.824;2023-05-29T19:16:14;14.0;;;9.0;;
45382;SDS011;42455;51.660;5.824;2023-05-29T19:21:20;17.5;;;9.0;;
45382;SDS011;42455;51.660;5.824;2023-05-29T19:26:26;7.5;;;3.0;;
45382;SDS011;42455;51.660;5.824;2023-05-29T19:31:32;5.0;;;2.0;;
45382;SDS011;42455;51.660;5.824;2023-05-29T19:36:38;4.0;;;2.0;;
45382;SDS011;42455;51.660;5.824;2023-05-29T19:41:44;6.0;;;2.0;;
45382;SDS011;42455;51.660;5.824;2023-05-29T19:46:50;5.0;;;2.0;;
45382;SDS011;42455;51.660;5.824;2023-05-29T19:51:57;6.0;;;2.0;;
45382;SDS011;42455;51.660;5.824;2023-05-29T19:57:03;7.0;;;2.0;;
45382;SDS011;42455;51.660;5.824;2023-05-29T20:02:09;7.0;;;2.0;;
45382;SDS011;42455;51.660;5.824;2023-05-29T20:07:15;5.0;;;2.0;;
45382;SDS011;42455;51.660;5.824;2023-05-29T20:12:22;5.0;;;2.0;;
45382;SDS011;42455;51.660;5.824;2023-05-29T20:17:28;6.0;;;2.0;;
45382;SDS011;42455;51.660;5.824;2023-05-29T20:22:34;6.0;;;2.0;;
45382;SDS011;42455;51.660;5.824;2023-05-29T20:27:40;6.0;;;2.0;;
45382;SDS011;42455;51.660;5.824;2023-05-29T20:32:46;5.5;;;2.0;;
45382;SDS011;42455;51.660;5.824;2023-05-29T20:37:53;4.0;;;2.0;;
45382;SDS011;42455;51.660;5.824;2023-05-29T20:42:59;6.0;;;2.0;;
45382;SDS011;42455;51.660;5.824;2023-05-29T20:48:05;6.5;;;2.0;;
45382;SDS011;42455;51.660;5.824;2023-05-29T20:53:11;5.0;;;2.0;;
45382;SDS011;42455;51.660;5.824;2023-05-29T20:58:17;6.0;;;2.0;;
45382;SDS011;42455;51.660;5.824;2023-05-29T21:03:24;6.0;;;2.0;;
45382;SDS011;42455;51.660;5.824;2023-05-29T21:08:30;5.0;;;2.0;;
45382;SDS011;42455;51.660;5.824;2023-05-29T21:13:36;6.0;;;2.0;;
45382;SDS011;42455;51.660;5.824;2023-05-29T21:18:42;8.0;;;2.0;;
45382;SDS011;42455;51.660;5.824;2023-05-29T21:23:48;6.0;;;2.0;;
45382;SDS011;42455;51.660;5.824;2023-05-29T21:28:55;7.0;;;2.0;;
45382;SDS011;42455;51.660;5.824;2023-05-29T21:34:01;7.0;;;2.0;;
45382;SDS011;42455;51.660;5.824;2023-05-29T21:39:07;7.5;;;2.0;;
45382;SDS011;42455;51.660;5.824;2023-05-29T21:44:13;7.0;;;2.0;;
45382;SDS011;42455;51.660;5.824;2023-05-29T21:49:19;8.0;;;2.0;;
45382;SDS011;42455;51.660;5.824;2023-05-29T21:54:26;7.0;;;2.0;;
45382;SDS011;42455;51.660;5.824;2023-05-29T21:59:32;7.0;;;2.0;;
45382;SDS011;42455;51.660;5.824;2023-05-29T22:04:38;7.0;;;2.0;;
45382;SDS011;42455;51.660;5.824;2023-05-29T22:09:44;8.0;;;2.0;;
45382;SDS011;42455;51.660;5.824;2023-05-29T22:14:50;7.0;;;2.0;;
45382;SDS011;42455;51.660;5.824;2023-05-29T22:19:57;8.0;;;2.0;;
45382;SDS011;42455;51.660;5.824;2023-05-29T22:25:03;8.0;;;2.0;;
45382;SDS011;42455;51.660;5.824;2023-05-29T22:30:09;8.0;;;2.0;;
45382;SDS011;42455;51.660;5.824;2023-05-29T22:35:15;9.0;;;2.0;;
45382;SDS011;42455;51.660;5.824;2023-05-29T22:40:22;8.0;;;2.0;;
45382;SDS011;42455;51.660;5.824;2023-05-29T22:45:28;8.0;;;3.0;;
45382;SDS011;42455;51.660;5.824;2023-05-29T22:50:34;8.0;;;2.0;;
45382;SDS011;42455;51.660;5.824;2023-05-29T22:55:40;6.0;;;2.0;;
45382;SDS011;42455;51.660;5.824;2023-05-29T23:00:46;8.0;;;2.0;;
45382;SDS011;42455;51.660;5.824;2023-05-29T23:05:53;10.5;;;3.0;;
45382;SDS011;42455;51.660;5.824;2023-05-29T23:10:59;9.0;;;3.0;;
45382;SDS011;42455;51.660;5.824;2023-05-29T23:16:05;10.0;;;3.0;;
45382;SDS011;42455;51.660;5.824;2023-05-29T23:21:11;10.0;;;2.0;;
45382;SDS011;42455;51.660;5.824;2023-05-29T23:26:18;8.0;;;3.0;;
45382;SDS011;42455;51.660;5.824;2023-05-29T23:31:24;7.5;;;2.0;;
45382;SDS011;42455;51.660;5.824;2023-05-29T23:36:30;9.0;;;3.0;;
45382;SDS011;42455;51.660;5.824;2023-05-29T23:41:36;7.0;;;3.0;;
45382;SDS011;42455;51.660;5.824;2023-05-29T23:46:42;8.0;;;3.0;;
45382;SDS011;42455;51.660;5.824;2023-05-29T23:51:48;8.0;;;3.0;;
45382;SDS011;42455;51.660;5.824;2023-05-29T23:56:55;8.0;;;2.0;;
